sensor_id;sensor_type;location;lat;lon;timestamp;P1;durP1;ratioP1;P2;durP2;ratioP2
801;SDS011;383;48.766;9.270;2023-04-29T00:02:16;12.60;;;7.93;;
801;SDS011;383;48.766;9.270;2023-04-29T00:04:43;11.07;;;6.83;;
801;SDS011;383;48.766;9.270;2023-04-29T00:07:10;10.00;;;6.40;;
801;SDS011;383;48.766;9.270;2023-04-29T00:09:39;8.53;;;5.53;;
801;SDS011;383;48.766;9.270;2023-04-29T00:12:06;6.53;;;5.03;;
801;SDS011;383;48.766;9.270;2023-04-29T00:14:33;8.73;;;5.53;;
801;SDS011;383;48.766;9.270;2023-04-29T00:17:00;12.10;;;5.83;;
801;SDS011;383;48.766;9.270;2023-04-29T00:19:29;9.17;;;5.10;;
801;SDS011;383;48.766;9.270;2023-04-29T00:21:55;8.47;;;5.80;;
801;SDS011;383;48.766;9.270;2023-04-29T00:24:22;8.90;;;5.90;;
801;SDS011;383;48.766;9.270;2023-04-29T00:26:49;11.87;;;6.03;;
801;SDS011;383;48.766;9.270;2023-04-29T00:29:15;14.50;;;5.80;;
801;SDS011;383;48.766;9.270;2023-04-29T00:31:42;8.40;;;5.50;;
801;SDS011;383;48.766;9.270;2023-04-29T00:34:09;7.10;;;5.00;;
801;SDS011;383;48.766;9.270;2023-04-29T00:36:37;7.53;;;5.33;;
801;SDS011;383;48.766;9.270;2023-04-29T00:39:04;8.70;;;5.55;;
801;SDS011;383;48.766;9.270;2023-04-29T00:41:31;8.10;;;5.17;;
801;SDS011;383;48.766;9.270;2023-04-29T00:43:58;10.43;;;4.70;;
801;SDS011;383;48.766;9.270;2023-04-29T00:46:25;8.55;;;5.05;;
801;SDS011;383;48.766;9.270;2023-04-29T00:48:52;15.25;;;5.45;;
801;SDS011;383;48.766;9.270;2023-04-29T00:51:19;7.00;;;4.93;;
801;SDS011;383;48.766;9.270;2023-04-29T00:53:47;5.07;;;3.97;;
801;SDS011;383;48.766;9.270;2023-04-29T00:56:14;7.30;;;4.67;;
801;SDS011;383;48.766;9.270;2023-04-29T00:58:41;10.60;;;4.40;;
801;SDS011;383;48.766;9.270;2023-04-29T01:01:13;8.50;;;5.40;;
801;SDS011;383;48.766;9.270;2023-04-29T01:03:41;7.07;;;4.80;;
801;SDS011;383;48.766;9.270;2023-04-29T01:06:08;7.70;;;4.90;;
801;SDS011;383;48.766;9.270;2023-04-29T01:08:58;10.23;;;5.20;;
801;SDS011;383;48.766;9.270;2023-04-29T01:11:37;8.95;;;5.25;;
801;SDS011;383;48.766;9.270;2023-04-29T01:14:20;8.65;;;5.10;;
801;SDS011;383;48.766;9.270;2023-04-29T01:16:50;8.70;;;4.57;;
801;SDS011;383;48.766;9.270;2023-04-29T01:19:20;9.33;;;4.93;;
801;SDS011;383;48.766;9.270;2023-04-29T01:22:04;8.43;;;5.80;;
801;SDS011;383;48.766;9.270;2023-04-29T01:24:32;8.32;;;5.53;;
801;SDS011;383;48.766;9.270;2023-04-29T01:27:01;7.75;;;4.80;;
801;SDS011;383;48.766;9.270;2023-04-29T01:29:39;7.80;;;5.15;;
801;SDS011;383;48.766;9.270;2023-04-29T01:32:12;6.57;;;4.50;;
801;SDS011;383;48.766;9.270;2023-04-29T01:34:43;7.20;;;4.67;;
801;SDS011;383;48.766;9.270;2023-04-29T01:37:17;10.10;;;4.70;;
801;SDS011;383;48.766;9.270;2023-04-29T01:39:55;9.27;;;4.93;;
801;SDS011;383;48.766;9.270;2023-04-29T01:42:28;5.82;;;4.60;;
801;SDS011;383;48.766;9.270;2023-04-29T01:45:02;6.05;;;4.65;;
801;SDS011;383;48.766;9.270;2023-04-29T01:47:32;6.43;;;4.47;;
801;SDS011;383;48.766;9.270;2023-04-29T01:50:00;13.40;;;5.03;;
801;SDS011;383;48.766;9.270;2023-04-29T01:52:27;6.28;;;4.32;;
801;SDS011;383;48.766;9.270;2023-04-29T01:54:56;7.07;;;4.75;;
801;SDS011;383;48.766;9.270;2023-04-29T01:57:22;7.95;;;5.68;;
801;SDS011;383;48.766;9.270;2023-04-29T01:59:49;8.25;;;5.80;;
801;SDS011;383;48.766;9.270;2023-04-29T02:02:16;7.67;;;5.10;;
801;SDS011;383;48.766;9.270;2023-04-29T02:04:45;10.27;;;5.20;;
801;SDS011;383;48.766;9.270;2023-04-29T02:07:12;7.90;;;5.20;;
801;SDS011;383;48.766;9.270;2023-04-29T02:09:39;6.43;;;4.90;;
801;SDS011;383;48.766;9.270;2023-04-29T02:12:08;9.77;;;4.93;;
801;SDS011;383;48.766;9.270;2023-04-29T02:14:34;7.32;;;4.75;;
801;SDS011;383;48.766;9.270;2023-04-29T02:17:01;9.55;;;4.38;;
801;SDS011;383;48.766;9.270;2023-04-29T02:19:28;8.30;;;5.43;;
801;SDS011;383;48.766;9.270;2023-04-29T02:21:54;10.82;;;4.78;;
801;SDS011;383;48.766;9.270;2023-04-29T02:24:21;6.93;;;4.78;;
801;SDS011;383;48.766;9.270;2023-04-29T02:26:48;9.63;;;5.50;;
801;SDS011;383;48.766;9.270;2023-04-29T02:29:16;9.52;;;5.55;;
801;SDS011;383;48.766;9.270;2023-04-29T02:31:43;8.98;;;5.35;;
801;SDS011;383;48.766;9.270;2023-04-29T02:34:09;6.30;;;4.72;;
801;SDS011;383;48.766;9.270;2023-04-29T02:36:36;9.45;;;5.15;;
801;SDS011;383;48.766;9.270;2023-04-29T02:39:03;6.43;;;4.50;;
801;SDS011;383;48.766;9.270;2023-04-29T02:41:30;5.80;;;4.30;;
801;SDS011;383;48.766;9.270;2023-04-29T02:43:57;7.28;;;4.50;;
801;SDS011;383;48.766;9.270;2023-04-29T02:46:25;6.00;;;4.38;;
801;SDS011;383;48.766;9.270;2023-04-29T02:48:52;7.25;;;4.30;;
801;SDS011;383;48.766;9.270;2023-04-29T02:51:19;9.38;;;4.22;;
801;SDS011;383;48.766;9.270;2023-04-29T02:53:45;8.07;;;4.32;;
801;SDS011;383;48.766;9.270;2023-04-29T02:56:12;7.82;;;5.07;;
801;SDS011;383;48.766;9.270;2023-04-29T02:58:38;9.05;;;4.63;;
801;SDS011;383;48.766;9.270;2023-04-29T03:01:06;8.75;;;4.97;;
801;SDS011;383;48.766;9.270;2023-04-29T03:03:34;7.55;;;4.50;;
801;SDS011;383;48.766;9.270;2023-04-29T03:06:00;6.60;;;5.25;;
801;SDS011;383;48.766;9.270;2023-04-29T03:08:27;6.55;;;4.72;;
801;SDS011;383;48.766;9.270;2023-04-29T03:10:54;8.65;;;4.40;;
801;SDS011;383;48.766;9.270;2023-04-29T03:13:20;10.15;;;4.60;;
801;SDS011;383;48.766;9.270;2023-04-29T03:15:47;8.18;;;5.55;;
801;SDS011;383;48.766;9.270;2023-04-29T03:18:14;13.10;;;5.20;;
801;SDS011;383;48.766;9.270;2023-04-29T03:20:42;8.30;;;4.90;;
801;SDS011;383;48.766;9.270;2023-04-29T03:23:08;6.00;;;5.13;;
801;SDS011;383;48.766;9.270;2023-04-29T03:25:35;10.98;;;5.88;;
801;SDS011;383;48.766;9.270;2023-04-29T03:28:02;9.77;;;7.10;;
801;SDS011;383;48.766;9.270;2023-04-29T03:30:29;8.40;;;6.10;;
801;SDS011;383;48.766;9.270;2023-04-29T03:32:55;9.43;;;6.15;;
801;SDS011;383;48.766;9.270;2023-04-29T03:35:22;8.93;;;5.90;;
801;SDS011;383;48.766;9.270;2023-04-29T03:37:50;8.43;;;6.20;;
801;SDS011;383;48.766;9.270;2023-04-29T03:40:17;8.60;;;6.53;;
801;SDS011;383;48.766;9.270;2023-04-29T03:42:44;9.68;;;6.78;;
801;SDS011;383;48.766;9.270;2023-04-29T03:45:10;14.80;;;6.75;;
801;SDS011;383;48.766;9.270;2023-04-29T03:47:38;9.70;;;6.30;;
801;SDS011;383;48.766;9.270;2023-04-29T03:50:05;13.82;;;5.78;;
801;SDS011;383;48.766;9.270;2023-04-29T03:52:33;8.85;;;5.82;;
801;SDS011;383;48.766;9.270;2023-04-29T03:55:02;8.52;;;6.45;;
801;SDS011;383;48.766;9.270;2023-04-29T03:57:30;6.45;;;4.95;;
801;SDS011;383;48.766;9.270;2023-04-29T03:59:57;8.93;;;5.50;;
801;SDS011;383;48.766;9.270;2023-04-29T04:02:24;5.00;;;4.35;;
801;SDS011;383;48.766;9.270;2023-04-29T04:04:50;6.82;;;4.38;;
801;SDS011;383;48.766;9.270;2023-04-29T04:07:19;8.85;;;4.43;;
801;SDS011;383;48.766;9.270;2023-04-29T04:09:45;10.27;;;4.63;;
801;SDS011;383;48.766;9.270;2023-04-29T04:12:13;10.52;;;5.50;;
801;SDS011;383;48.766;9.270;2023-04-29T04:14:40;8.50;;;4.15;;
801;SDS011;383;48.766;9.270;2023-04-29T04:17:06;5.43;;;4.60;;
801;SDS011;383;48.766;9.270;2023-04-29T04:19:33;5.95;;;4.22;;
801;SDS011;383;48.766;9.270;2023-04-29T04:22:01;6.57;;;4.70;;
801;SDS011;383;48.766;9.270;2023-04-29T04:24:28;5.72;;;4.28;;
801;SDS011;383;48.766;9.270;2023-04-29T04:26:55;10.75;;;5.05;;
801;SDS011;383;48.766;9.270;2023-04-29T04:29:23;6.60;;;4.93;;
801;SDS011;383;48.766;9.270;2023-04-29T04:31:50;7.47;;;4.13;;
801;SDS011;383;48.766;9.270;2023-04-29T04:34:16;7.05;;;4.70;;
801;SDS011;383;48.766;9.270;2023-04-29T04:36:43;8.02;;;4.50;;
801;SDS011;383;48.766;9.270;2023-04-29T04:39:10;11.32;;;4.57;;
801;SDS011;383;48.766;9.270;2023-04-29T04:41:37;7.50;;;4.80;;
801;SDS011;383;48.766;9.270;2023-04-29T04:44:04;9.57;;;5.22;;
801;SDS011;383;48.766;9.270;2023-04-29T04:46:32;12.25;;;6.25;;
801;SDS011;383;48.766;9.270;2023-04-29T04:48:59;13.80;;;5.80;;
801;SDS011;383;48.766;9.270;2023-04-29T04:51:25;11.65;;;6.00;;
801;SDS011;383;48.766;9.270;2023-04-29T04:53:52;8.90;;;5.93;;
801;SDS011;383;48.766;9.270;2023-04-29T04:56:19;10.77;;;5.45;;
801;SDS011;383;48.766;9.270;2023-04-29T04:58:46;9.07;;;5.57;;
801;SDS011;383;48.766;9.270;2023-04-29T05:01:13;10.00;;;5.80;;
801;SDS011;383;48.766;9.270;2023-04-29T05:03:41;11.50;;;6.30;;
801;SDS011;383;48.766;9.270;2023-04-29T05:06:08;17.70;;;6.93;;
801;SDS011;383;48.766;9.270;2023-04-29T05:08:34;11.45;;;5.97;;
801;SDS011;383;48.766;9.270;2023-04-29T05:11:01;10.98;;;6.25;;
801;SDS011;383;48.766;9.270;2023-04-29T05:13:27;11.82;;;6.72;;
801;SDS011;383;48.766;9.270;2023-04-29T05:15:54;13.25;;;7.45;;
801;SDS011;383;48.766;9.270;2023-04-29T05:18:21;11.93;;;6.88;;
801;SDS011;383;48.766;9.270;2023-04-29T05:20:49;17.33;;;7.13;;
801;SDS011;383;48.766;9.270;2023-04-29T05:23:15;10.00;;;6.85;;
801;SDS011;383;48.766;9.270;2023-04-29T05:25:42;14.30;;;8.60;;
801;SDS011;383;48.766;9.270;2023-04-29T05:28:09;10.73;;;6.60;;
801;SDS011;383;48.766;9.270;2023-04-29T05:30:35;12.27;;;7.25;;
801;SDS011;383;48.766;9.270;2023-04-29T05:33:02;9.93;;;7.53;;
801;SDS011;383;48.766;9.270;2023-04-29T05:35:29;12.00;;;7.30;;
801;SDS011;383;48.766;9.270;2023-04-29T05:37:57;9.88;;;7.47;;
801;SDS011;383;48.766;9.270;2023-04-29T05:40:24;10.52;;;7.90;;
801;SDS011;383;48.766;9.270;2023-04-29T05:42:51;10.50;;;7.70;;
801;SDS011;383;48.766;9.270;2023-04-29T05:45:17;9.63;;;7.30;;
801;SDS011;383;48.766;9.270;2023-04-29T05:47:45;9.03;;;7.70;;
801;SDS011;383;48.766;9.270;2023-04-29T05:50:12;10.30;;;8.30;;
801;SDS011;383;48.766;9.270;2023-04-29T05:52:38;12.88;;;8.35;;
801;SDS011;383;48.766;9.270;2023-04-29T05:55:07;11.20;;;7.57;;
801;SDS011;383;48.766;9.270;2023-04-29T05:57:34;11.47;;;8.50;;
801;SDS011;383;48.766;9.270;2023-04-29T06:00:01;16.23;;;8.30;;
801;SDS011;383;48.766;9.270;2023-04-29T06:02:28;10.47;;;8.00;;
801;SDS011;383;48.766;9.270;2023-04-29T06:04:55;11.50;;;7.97;;
801;SDS011;383;48.766;9.270;2023-04-29T06:07:22;13.27;;;8.47;;
801;SDS011;383;48.766;9.270;2023-04-29T06:09:50;10.67;;;7.20;;
801;SDS011;383;48.766;9.270;2023-04-29T06:12:18;13.67;;;8.17;;
801;SDS011;383;48.766;9.270;2023-04-29T06:14:45;11.20;;;7.50;;
801;SDS011;383;48.766;9.270;2023-04-29T06:17:12;14.03;;;8.00;;
801;SDS011;383;48.766;9.270;2023-04-29T06:19:39;9.00;;;7.00;;
801;SDS011;383;48.766;9.270;2023-04-29T06:22:05;11.43;;;7.00;;
801;SDS011;383;48.766;9.270;2023-04-29T06:24:32;8.10;;;6.13;;
801;SDS011;383;48.766;9.270;2023-04-29T06:26:59;8.37;;;5.93;;
801;SDS011;383;48.766;9.270;2023-04-29T06:29:27;8.37;;;6.50;;
801;SDS011;383;48.766;9.270;2023-04-29T06:31:54;13.80;;;6.23;;
801;SDS011;383;48.766;9.270;2023-04-29T06:34:21;10.70;;;6.10;;
801;SDS011;383;48.766;9.270;2023-04-29T06:36:47;10.27;;;5.27;;
801;SDS011;383;48.766;9.270;2023-04-29T06:39:14;7.60;;;5.07;;
801;SDS011;383;48.766;9.270;2023-04-29T06:41:41;5.30;;;4.30;;
801;SDS011;383;48.766;9.270;2023-04-29T06:44:07;6.40;;;4.30;;
801;SDS011;383;48.766;9.270;2023-04-29T06:46:35;5.63;;;4.30;;
801;SDS011;383;48.766;9.270;2023-04-29T06:49:03;6.00;;;5.00;;
801;SDS011;383;48.766;9.270;2023-04-29T06:51:30;6.47;;;3.83;;
801;SDS011;383;48.766;9.270;2023-04-29T06:53:57;4.40;;;3.10;;
801;SDS011;383;48.766;9.270;2023-04-29T06:56:24;5.20;;;3.63;;
801;SDS011;383;48.766;9.270;2023-04-29T06:58:51;6.70;;;3.90;;
801;SDS011;383;48.766;9.270;2023-04-29T07:01:17;5.50;;;3.70;;
801;SDS011;383;48.766;9.270;2023-04-29T07:03:46;6.60;;;3.53;;
801;SDS011;383;48.766;9.270;2023-04-29T07:06:12;10.57;;;3.67;;
801;SDS011;383;48.766;9.270;2023-04-29T07:08:39;7.30;;;3.60;;
801;SDS011;383;48.766;9.270;2023-04-29T07:11:05;3.97;;;3.43;;
801;SDS011;383;48.766;9.270;2023-04-29T07:13:32;7.03;;;3.77;;
801;SDS011;383;48.766;9.270;2023-04-29T07:15:59;4.00;;;3.40;;
801;SDS011;383;48.766;9.270;2023-04-29T07:18:25;10.67;;;3.47;;
801;SDS011;383;48.766;9.270;2023-04-29T07:20:53;4.87;;;3.80;;
801;SDS011;383;48.766;9.270;2023-04-29T07:23:20;4.87;;;4.17;;
801;SDS011;383;48.766;9.270;2023-04-29T07:25:47;4.17;;;3.73;;
801;SDS011;383;48.766;9.270;2023-04-29T07:28:13;4.73;;;3.77;;
801;SDS011;383;48.766;9.270;2023-04-29T07:30:40;7.00;;;3.33;;
801;SDS011;383;48.766;9.270;2023-04-29T07:33:06;3.23;;;2.50;;
801;SDS011;383;48.766;9.270;2023-04-29T07:35:34;4.80;;;2.60;;
801;SDS011;383;48.766;9.270;2023-04-29T07:38:02;4.00;;;2.90;;
801;SDS011;383;48.766;9.270;2023-04-29T07:40:28;4.00;;;3.07;;
801;SDS011;383;48.766;9.270;2023-04-29T07:42:55;5.90;;;3.17;;
801;SDS011;383;48.766;9.270;2023-04-29T07:45:21;4.80;;;2.63;;
801;SDS011;383;48.766;9.270;2023-04-29T07:47:48;5.33;;;2.83;;
801;SDS011;383;48.766;9.270;2023-04-29T07:50:15;4.03;;;2.70;;
801;SDS011;383;48.766;9.270;2023-04-29T07:52:42;8.40;;;3.30;;
801;SDS011;383;48.766;9.270;2023-04-29T07:55:10;4.27;;;3.40;;
801;SDS011;383;48.766;9.270;2023-04-29T07:57:36;2.60;;;2.40;;
801;SDS011;383;48.766;9.270;2023-04-29T08:00:03;3.20;;;2.67;;
801;SDS011;383;48.766;9.270;2023-04-29T08:02:31;5.80;;;2.60;;
801;SDS011;383;48.766;9.270;2023-04-29T08:04:58;3.00;;;2.37;;
801;SDS011;383;48.766;9.270;2023-04-29T08:07:25;2.80;;;2.47;;
801;SDS011;383;48.766;9.270;2023-04-29T08:09:51;10.17;;;3.33;;
801;SDS011;383;48.766;9.270;2023-04-29T08:12:19;4.97;;;2.60;;
801;SDS011;383;48.766;9.270;2023-04-29T08:14:46;4.53;;;3.40;;
801;SDS011;383;48.766;9.270;2023-04-29T08:17:12;3.67;;;2.53;;
801;SDS011;383;48.766;9.270;2023-04-29T08:19:39;2.40;;;2.00;;
801;SDS011;383;48.766;9.270;2023-04-29T08:22:06;8.07;;;2.87;;
801;SDS011;383;48.766;9.270;2023-04-29T08:24:35;5.27;;;3.30;;
801;SDS011;383;48.766;9.270;2023-04-29T08:27:02;3.03;;;2.43;;
801;SDS011;383;48.766;9.270;2023-04-29T08:29:30;3.80;;;2.77;;
801;SDS011;383;48.766;9.270;2023-04-29T08:31:58;2.73;;;2.37;;
801;SDS011;383;48.766;9.270;2023-04-29T08:34:25;3.33;;;2.43;;
801;SDS011;383;48.766;9.270;2023-04-29T08:36:51;4.50;;;2.23;;
801;SDS011;383;48.766;9.270;2023-04-29T08:39:18;3.00;;;2.63;;
801;SDS011;383;48.766;9.270;2023-04-29T08:41:45;5.97;;;3.00;;
801;SDS011;383;48.766;9.270;2023-04-29T08:44:15;2.33;;;2.13;;
801;SDS011;383;48.766;9.270;2023-04-29T08:46:43;3.40;;;2.80;;
801;SDS011;383;48.766;9.270;2023-04-29T08:49:11;5.30;;;3.37;;
801;SDS011;383;48.766;9.270;2023-04-29T08:51:38;4.17;;;3.20;;
801;SDS011;383;48.766;9.270;2023-04-29T08:54:05;3.43;;;2.60;;
801;SDS011;383;48.766;9.270;2023-04-29T08:56:31;4.07;;;3.20;;
801;SDS011;383;48.766;9.270;2023-04-29T08:58:59;6.57;;;3.37;;
801;SDS011;383;48.766;9.270;2023-04-29T09:01:28;4.67;;;3.37;;
801;SDS011;383;48.766;9.270;2023-04-29T09:03:59;4.70;;;2.97;;
801;SDS011;383;48.766;9.270;2023-04-29T09:06:33;3.83;;;2.90;;
801;SDS011;383;48.766;9.270;2023-04-29T09:09:00;4.00;;;2.93;;
801;SDS011;383;48.766;9.270;2023-04-29T09:11:28;4.97;;;3.90;;
801;SDS011;383;48.766;9.270;2023-04-29T09:13:57;3.47;;;3.13;;
801;SDS011;383;48.766;9.270;2023-04-29T09:16:24;8.70;;;3.90;;
801;SDS011;383;48.766;9.270;2023-04-29T09:18:51;4.40;;;3.23;;
801;SDS011;383;48.766;9.270;2023-04-29T09:21:20;3.40;;;2.83;;
801;SDS011;383;48.766;9.270;2023-04-29T09:23:48;4.50;;;3.73;;
801;SDS011;383;48.766;9.270;2023-04-29T09:26:16;3.63;;;2.93;;
801;SDS011;383;48.766;9.270;2023-04-29T09:28:43;4.83;;;3.50;;
801;SDS011;383;48.766;9.270;2023-04-29T09:31:11;3.47;;;2.70;;
801;SDS011;383;48.766;9.270;2023-04-29T09:33:51;3.43;;;2.83;;
801;SDS011;383;48.766;9.270;2023-04-29T09:36:39;4.93;;;2.63;;
801;SDS011;383;48.766;9.270;2023-04-29T09:39:10;5.03;;;3.30;;
801;SDS011;383;48.766;9.270;2023-04-29T09:41:38;3.80;;;3.07;;
801;SDS011;383;48.766;9.270;2023-04-29T09:44:06;6.37;;;2.57;;
801;SDS011;383;48.766;9.270;2023-04-29T09:46:34;5.83;;;2.77;;
801;SDS011;383;48.766;9.270;2023-04-29T09:49:02;3.90;;;3.23;;
801;SDS011;383;48.766;9.270;2023-04-29T09:51:30;4.03;;;3.83;;
801;SDS011;383;48.766;9.270;2023-04-29T09:53:59;5.60;;;3.50;;
801;SDS011;383;48.766;9.270;2023-04-29T09:56:47;8.17;;;3.50;;
801;SDS011;383;48.766;9.270;2023-04-29T09:59:15;4.20;;;3.50;;
801;SDS011;383;48.766;9.270;2023-04-29T10:01:42;5.73;;;3.23;;
801;SDS011;383;48.766;9.270;2023-04-29T10:04:09;4.37;;;3.83;;
801;SDS011;383;48.766;9.270;2023-04-29T10:06:37;3.50;;;2.97;;
801;SDS011;383;48.766;9.270;2023-04-29T10:09:08;6.70;;;3.23;;
801;SDS011;383;48.766;9.270;2023-04-29T10:11:40;3.17;;;2.67;;
801;SDS011;383;48.766;9.270;2023-04-29T10:14:08;4.80;;;3.00;;
801;SDS011;383;48.766;9.270;2023-04-29T10:16:38;7.53;;;2.60;;
801;SDS011;383;48.766;9.270;2023-04-29T10:19:23;3.37;;;2.30;;
801;SDS011;383;48.766;9.270;2023-04-29T10:21:52;4.20;;;3.17;;
801;SDS011;383;48.766;9.270;2023-04-29T10:24:21;4.23;;;3.10;;
801;SDS011;383;48.766;9.270;2023-04-29T10:26:50;3.47;;;2.60;;
801;SDS011;383;48.766;9.270;2023-04-29T10:29:18;3.10;;;2.10;;
801;SDS011;383;48.766;9.270;2023-04-29T10:31:47;5.17;;;3.03;;
801;SDS011;383;48.766;9.270;2023-04-29T10:34:15;7.80;;;2.90;;
801;SDS011;383;48.766;9.270;2023-04-29T10:36:43;3.77;;;2.47;;
801;SDS011;383;48.766;9.270;2023-04-29T10:39:12;3.53;;;3.00;;
801;SDS011;383;48.766;9.270;2023-04-29T10:41:50;3.13;;;2.97;;
801;SDS011;383;48.766;9.270;2023-04-29T10:44:17;3.63;;;2.93;;
801;SDS011;383;48.766;9.270;2023-04-29T10:46:44;4.50;;;3.10;;
801;SDS011;383;48.766;9.270;2023-04-29T10:49:11;3.40;;;2.87;;
801;SDS011;383;48.766;9.270;2023-04-29T10:51:41;3.03;;;2.53;;
801;SDS011;383;48.766;9.270;2023-04-29T10:54:09;3.80;;;2.23;;
801;SDS011;383;48.766;9.270;2023-04-29T10:56:42;5.97;;;2.63;;
801;SDS011;383;48.766;9.270;2023-04-29T10:59:13;3.57;;;2.30;;
801;SDS011;383;48.766;9.270;2023-04-29T11:01:45;5.63;;;2.50;;
801;SDS011;383;48.766;9.270;2023-04-29T11:04:14;2.70;;;2.23;;
801;SDS011;383;48.766;9.270;2023-04-29T11:06:45;3.07;;;2.53;;
801;SDS011;383;48.766;9.270;2023-04-29T11:09:14;2.33;;;2.23;;
801;SDS011;383;48.766;9.270;2023-04-29T11:11:45;4.80;;;3.13;;
801;SDS011;383;48.766;9.270;2023-04-29T11:14:22;6.13;;;3.00;;
801;SDS011;383;48.766;9.270;2023-04-29T11:16:51;3.47;;;2.57;;
801;SDS011;383;48.766;9.270;2023-04-29T11:19:18;4.87;;;2.80;;
801;SDS011;383;48.766;9.270;2023-04-29T11:21:45;4.83;;;3.23;;
801;SDS011;383;48.766;9.270;2023-04-29T11:24:12;5.90;;;3.07;;
801;SDS011;383;48.766;9.270;2023-04-29T11:26:42;3.30;;;2.93;;
801;SDS011;383;48.766;9.270;2023-04-29T11:29:10;3.33;;;2.50;;
801;SDS011;383;48.766;9.270;2023-04-29T11:31:38;3.83;;;3.33;;
801;SDS011;383;48.766;9.270;2023-04-29T11:34:05;8.60;;;3.00;;
801;SDS011;383;48.766;9.270;2023-04-29T11:36:32;3.30;;;2.50;;
801;SDS011;383;48.766;9.270;2023-04-29T11:39:01;3.90;;;2.17;;
801;SDS011;383;48.766;9.270;2023-04-29T11:41:28;2.20;;;2.00;;
801;SDS011;383;48.766;9.270;2023-04-29T11:43:56;2.40;;;2.07;;
801;SDS011;383;48.766;9.270;2023-04-29T11:46:25;4.50;;;2.83;;
801;SDS011;383;48.766;9.270;2023-04-29T11:48:57;3.40;;;2.80;;
801;SDS011;383;48.766;9.270;2023-04-29T11:51:24;4.93;;;2.90;;
801;SDS011;383;48.766;9.270;2023-04-29T11:53:52;8.10;;;2.83;;
801;SDS011;383;48.766;9.270;2023-04-29T11:56:20;6.57;;;3.27;;
801;SDS011;383;48.766;9.270;2023-04-29T11:58:49;6.17;;;2.83;;
801;SDS011;383;48.766;9.270;2023-04-29T12:01:18;3.40;;;2.70;;
801;SDS011;383;48.766;9.270;2023-04-29T12:03:47;3.07;;;2.80;;
801;SDS011;383;48.766;9.270;2023-04-29T12:06:15;3.13;;;2.83;;
801;SDS011;383;48.766;9.270;2023-04-29T12:08:42;3.57;;;2.73;;
801;SDS011;383;48.766;9.270;2023-04-29T12:11:11;6.00;;;3.77;;
801;SDS011;383;48.766;9.270;2023-04-29T12:13:38;4.70;;;3.10;;
801;SDS011;383;48.766;9.270;2023-04-29T12:16:05;4.93;;;3.90;;
801;SDS011;383;48.766;9.270;2023-04-29T12:18:33;9.90;;;4.10;;
801;SDS011;383;48.766;9.270;2023-04-29T12:21:00;5.00;;;3.83;;
801;SDS011;383;48.766;9.270;2023-04-29T12:23:29;4.27;;;3.23;;
801;SDS011;383;48.766;9.270;2023-04-29T12:25:56;4.50;;;3.37;;
801;SDS011;383;48.766;9.270;2023-04-29T12:28:24;4.90;;;3.70;;
801;SDS011;383;48.766;9.270;2023-04-29T12:30:51;8.27;;;4.00;;
801;SDS011;383;48.766;9.270;2023-04-29T12:33:19;8.57;;;4.17;;
801;SDS011;383;48.766;9.270;2023-04-29T12:35:47;6.43;;;3.97;;
801;SDS011;383;48.766;9.270;2023-04-29T12:38:15;6.13;;;4.47;;
801;SDS011;383;48.766;9.270;2023-04-29T12:40:47;7.67;;;4.00;;
801;SDS011;383;48.766;9.270;2023-04-29T12:43:14;7.30;;;4.23;;
801;SDS011;383;48.766;9.270;2023-04-29T12:45:41;4.87;;;3.43;;
801;SDS011;383;48.766;9.270;2023-04-29T12:48:08;5.33;;;3.80;;
801;SDS011;383;48.766;9.270;2023-04-29T12:50:37;4.73;;;3.63;;
801;SDS011;383;48.766;9.270;2023-04-29T12:53:05;7.37;;;4.40;;
801;SDS011;383;48.766;9.270;2023-04-29T12:55:33;8.60;;;4.10;;
801;SDS011;383;48.766;9.270;2023-04-29T12:58:02;6.13;;;4.30;;
801;SDS011;383;48.766;9.270;2023-04-29T13:00:29;6.40;;;4.10;;
801;SDS011;383;48.766;9.270;2023-04-29T13:02:56;6.40;;;4.10;;
801;SDS011;383;48.766;9.270;2023-04-29T13:05:23;8.40;;;5.80;;
801;SDS011;383;48.766;9.270;2023-04-29T13:07:50;7.40;;;5.10;;
801;SDS011;383;48.766;9.270;2023-04-29T13:10:17;8.17;;;5.90;;
801;SDS011;383;48.766;9.270;2023-04-29T13:12:44;8.80;;;4.63;;
801;SDS011;383;48.766;9.270;2023-04-29T13:15:13;7.13;;;4.80;;
801;SDS011;383;48.766;9.270;2023-04-29T13:17:39;8.37;;;4.33;;
801;SDS011;383;48.766;9.270;2023-04-29T13:20:07;6.73;;;4.70;;
801;SDS011;383;48.766;9.270;2023-04-29T13:22:35;12.47;;;5.43;;
801;SDS011;383;48.766;9.270;2023-04-29T13:25:02;7.30;;;5.67;;
801;SDS011;383;48.766;9.270;2023-04-29T13:27:29;9.90;;;5.67;;
801;SDS011;383;48.766;9.270;2023-04-29T13:29:56;8.40;;;5.43;;
801;SDS011;383;48.766;9.270;2023-04-29T13:32:24;8.00;;;6.07;;
801;SDS011;383;48.766;9.270;2023-04-29T13:34:51;12.10;;;5.67;;
801;SDS011;383;48.766;9.270;2023-04-29T13:37:18;7.90;;;5.13;;
801;SDS011;383;48.766;9.270;2023-04-29T13:39:45;7.73;;;4.77;;
801;SDS011;383;48.766;9.270;2023-04-29T13:42:12;8.13;;;4.30;;
801;SDS011;383;48.766;9.270;2023-04-29T13:44:38;9.70;;;4.90;;
801;SDS011;383;48.766;9.270;2023-04-29T13:47:08;7.40;;;4.50;;
801;SDS011;383;48.766;9.270;2023-04-29T13:49:37;10.17;;;5.77;;
801;SDS011;383;48.766;9.270;2023-04-29T13:52:04;9.47;;;5.70;;
801;SDS011;383;48.766;9.270;2023-04-29T13:54:31;8.67;;;5.60;;
801;SDS011;383;48.766;9.270;2023-04-29T13:56:58;9.83;;;5.83;;
801;SDS011;383;48.766;9.270;2023-04-29T13:59:25;10.27;;;6.00;;
801;SDS011;383;48.766;9.270;2023-04-29T14:01:52;12.30;;;5.47;;
801;SDS011;383;48.766;9.270;2023-04-29T14:04:19;12.90;;;5.77;;
801;SDS011;383;48.766;9.270;2023-04-29T14:06:47;9.33;;;6.77;;
801;SDS011;383;48.766;9.270;2023-04-29T14:09:14;8.30;;;6.20;;
801;SDS011;383;48.766;9.270;2023-04-29T14:11:41;10.47;;;5.83;;
801;SDS011;383;48.766;9.270;2023-04-29T14:14:08;11.50;;;6.40;;
801;SDS011;383;48.766;9.270;2023-04-29T14:16:34;8.60;;;5.93;;
801;SDS011;383;48.766;9.270;2023-04-29T14:19:01;9.40;;;5.90;;
801;SDS011;383;48.766;9.270;2023-04-29T14:21:28;10.40;;;5.60;;
801;SDS011;383;48.766;9.270;2023-04-29T14:23:58;12.30;;;7.70;;
801;SDS011;383;48.766;9.270;2023-04-29T14:26:26;8.30;;;6.10;;
801;SDS011;383;48.766;9.270;2023-04-29T14:28:53;11.53;;;5.77;;
801;SDS011;383;48.766;9.270;2023-04-29T14:31:22;12.17;;;6.50;;
801;SDS011;383;48.766;9.270;2023-04-29T14:33:49;7.57;;;5.23;;
801;SDS011;383;48.766;9.270;2023-04-29T14:36:16;11.93;;;5.73;;
801;SDS011;383;48.766;9.270;2023-04-29T14:38:42;11.10;;;5.97;;
801;SDS011;383;48.766;9.270;2023-04-29T14:41:10;11.73;;;5.87;;
801;SDS011;383;48.766;9.270;2023-04-29T14:43:37;15.83;;;5.87;;
801;SDS011;383;48.766;9.270;2023-04-29T14:46:05;10.30;;;5.60;;
801;SDS011;383;48.766;9.270;2023-04-29T14:48:32;12.80;;;5.13;;
801;SDS011;383;48.766;9.270;2023-04-29T14:50:58;8.87;;;5.60;;
801;SDS011;383;48.766;9.270;2023-04-29T14:53:25;10.40;;;7.03;;
801;SDS011;383;48.766;9.270;2023-04-29T14:55:52;9.63;;;5.93;;
801;SDS011;383;48.766;9.270;2023-04-29T14:58:20;16.73;;;6.13;;
801;SDS011;383;48.766;9.270;2023-04-29T15:00:46;8.53;;;5.50;;
801;SDS011;383;48.766;9.270;2023-04-29T15:03:14;9.67;;;5.90;;
801;SDS011;383;48.766;9.270;2023-04-29T15:05:41;9.63;;;6.43;;
801;SDS011;383;48.766;9.270;2023-04-29T15:08:08;8.17;;;5.53;;
801;SDS011;383;48.766;9.270;2023-04-29T15:10:35;11.67;;;6.33;;
801;SDS011;383;48.766;9.270;2023-04-29T15:13:01;11.13;;;6.30;;
801;SDS011;383;48.766;9.270;2023-04-29T15:15:29;10.63;;;5.63;;
801;SDS011;383;48.766;9.270;2023-04-29T15:17:56;15.43;;;6.60;;
801;SDS011;383;48.766;9.270;2023-04-29T15:20:23;14.00;;;7.03;;
801;SDS011;383;48.766;9.270;2023-04-29T15:22:50;9.97;;;5.90;;
801;SDS011;383;48.766;9.270;2023-04-29T15:25:16;10.37;;;5.80;;
801;SDS011;383;48.766;9.270;2023-04-29T15:27:43;14.27;;;7.53;;
801;SDS011;383;48.766;9.270;2023-04-29T15:30:10;8.80;;;6.20;;
801;SDS011;383;48.766;9.270;2023-04-29T15:32:39;9.57;;;6.90;;
801;SDS011;383;48.766;9.270;2023-04-29T15:35:06;9.97;;;5.83;;
801;SDS011;383;48.766;9.270;2023-04-29T15:37:33;9.80;;;6.53;;
801;SDS011;383;48.766;9.270;2023-04-29T15:40:00;11.20;;;6.20;;
801;SDS011;383;48.766;9.270;2023-04-29T15:42:27;10.20;;;6.70;;
801;SDS011;383;48.766;9.270;2023-04-29T15:44:54;10.87;;;6.43;;
801;SDS011;383;48.766;9.270;2023-04-29T15:47:21;14.70;;;7.83;;